createdAt,value
2018-07-02T00:02:20.045Z,64.10
2018-07-02T00:04:48.419Z,64.00
2018-07-02T00:07:19.205Z,64.30
2018-07-02T00:09:47.981Z,64.30
2018-07-02T00:12:17.337Z,64.50
2018-07-02T00:17:14.787Z,65.30
2018-07-02T00:19:43.139Z,65.00
2018-07-02T00:22:12.197Z,65.30
2018-07-02T00:27:08.857Z,64.70
2018-07-02T00:29:37.241Z,65.30
2018-07-02T00:34:33.807Z,66.10
2018-07-02T00:37:02.143Z,66.00
2018-07-02T00:39:30.504Z,66.50
2018-07-02T00:41:58.877Z,66.70
2018-07-02T00:44:27.209Z,66.70
2018-07-02T00:46:55.570Z,66.90
2018-07-02T00:49:23.952Z,67.00
2018-07-02T00:51:52.309Z,67.30
2018-07-02T00:54:20.683Z,67.20
2018-07-02T00:56:49.025Z,67.20
2018-07-02T00:59:17.437Z,67.70
2018-07-02T01:01:45.791Z,67.90
2018-07-02T01:04:14.164Z,68.00
2018-07-02T01:06:42.526Z,67.80
2018-07-02T01:09:10.937Z,68.10
2018-07-02T01:11:39.262Z,68.20
2018-07-02T01:14:07.761Z,68.70
2018-07-02T01:16:36.200Z,68.80
2018-07-02T01:19:04.632Z,68.70
2018-07-02T01:21:34.128Z,69.00
2018-07-02T01:24:02.492Z,69.10
2018-07-02T01:26:30.879Z,69.40
2018-07-02T01:28:59.258Z,69.60
2018-07-02T01:31:27.603Z,69.80
2018-07-02T01:33:55.941Z,70.00
2018-07-02T01:36:24.308Z,70.10
2018-07-02T01:38:52.663Z,70.10
2018-07-02T01:41:21.019Z,70.20
2018-07-02T01:43:49.396Z,70.60
2018-07-02T01:46:17.741Z,70.10
2018-07-02T01:48:46.098Z,70.40
2018-07-02T01:51:14.513Z,70.40
2018-07-02T01:53:42.856Z,70.60
2018-07-02T01:56:11.186Z,70.90
2018-07-02T01:58:39.524Z,71.30
2018-07-02T02:01:07.888Z,71.60
2018-07-02T02:03:36.223Z,71.80
2018-07-02T02:06:04.787Z,71.80
2018-07-02T02:08:33.117Z,72.10
2018-07-02T02:11:01.487Z,72.40
2018-07-02T02:13:29.826Z,72.40
2018-07-02T02:15:58.149Z,72.40
2018-07-02T02:18:26.493Z,72.40
2018-07-02T02:20:54.825Z,72.20
2018-07-02T02:23:23.163Z,72.20
2018-07-02T02:25:51.517Z,72.40
2018-07-02T02:28:19.868Z,72.20
2018-07-02T02:30:48.248Z,72.40
2018-07-02T02:33:16.602Z,72.70
2018-07-02T02:35:44.946Z,72.80
2018-07-02T02:38:13.641Z,73.20
2018-07-02T02:40:41.988Z,73.10
2018-07-02T02:43:10.377Z,73.30
2018-07-02T02:45:38.716Z,73.60
2018-07-02T02:48:07.047Z,73.80
2018-07-02T02:50:35.382Z,73.80
2018-07-02T02:53:03.779Z,74.10
2018-07-02T02:55:32.119Z,73.80
2018-07-02T02:58:00.458Z,74.40
2018-07-02T03:00:28.774Z,74.30
2018-07-02T03:02:57.194Z,74.50
2018-07-02T03:05:25.547Z,74.60
2018-07-02T03:07:53.891Z,74.90
2018-07-02T03:10:22.264Z,75.20
2018-07-02T03:12:50.600Z,75.40
2018-07-02T03:15:18.951Z,75.60
2018-07-02T03:17:47.291Z,75.50
2018-07-02T03:20:15.740Z,76.30
2018-07-02T03:22:44.067Z,75.80
2018-07-02T03:25:12.373Z,75.90
2018-07-02T03:27:40.769Z,76.00
2018-07-02T03:30:09.094Z,76.10
2018-07-02T03:32:37.439Z,76.10
2018-07-02T03:35:05.829Z,76.20
2018-07-02T03:37:34.190Z,76.40
2018-07-02T03:40:02.596Z,76.40
2018-07-02T03:42:30.962Z,76.00
2018-07-02T03:44:59.325Z,76.80
2018-07-02T03:47:27.673Z,77.20
2018-07-02T03:49:55.989Z,77.60
2018-07-02T03:52:24.417Z,77.80
2018-07-02T03:54:52.784Z,78.10
2018-07-02T03:57:21.218Z,77.70
2018-07-02T03:59:49.569Z,78.20
2018-07-02T04:02:17.930Z,77.80
2018-07-02T04:04:46.301Z,78.10
2018-07-02T04:07:14.645Z,78.10
2018-07-02T04:09:43.024Z,78.30
2018-07-02T04:12:11.427Z,79.10
2018-07-02T04:14:39.790Z,78.50
2018-07-02T04:17:08.226Z,78.40
2018-07-02T04:19:36.575Z,78.40
2018-07-02T04:22:05.007Z,78.20
2018-07-02T04:24:33.348Z,78.20
2018-07-02T04:27:01.690Z,77.80
2018-07-02T04:29:30.035Z,77.90
2018-07-02T04:31:58.373Z,77.80
2018-07-02T04:34:26.767Z,77.70
2018-07-02T04:36:55.126Z,78.10
2018-07-02T04:39:23.516Z,77.80
2018-07-02T04:41:51.888Z,77.20
2018-07-02T04:44:20.246Z,77.80
2018-07-02T04:46:48.635Z,77.40
2018-07-02T04:49:17.015Z,77.50
2018-07-02T04:51:45.456Z,77.20
2018-07-02T04:54:13.832Z,76.40
2018-07-02T04:56:42.174Z,76.70
2018-07-02T04:59:10.554Z,76.30
2018-07-02T05:01:38.965Z,76.50
2018-07-02T05:04:07.305Z,75.70
2018-07-02T05:06:35.648Z,75.60
2018-07-02T05:09:05.762Z,76.10
2018-07-02T05:11:34.156Z,75.30
2018-07-02T05:14:02.488Z,75.20
2018-07-02T05:16:30.870Z,75.00
2018-07-02T05:18:59.227Z,75.10
2018-07-02T05:21:27.591Z,76.00
2018-07-02T05:23:55.956Z,74.90
2018-07-02T05:26:24.330Z,73.70
2018-07-02T05:28:52.945Z,73.80
2018-07-02T05:31:21.326Z,74.20
2018-07-02T05:33:49.711Z,72.50
2018-07-02T05:36:18.036Z,73.30
2018-07-02T05:38:46.474Z,73.00
2018-07-02T05:41:14.783Z,71.80
2018-07-02T05:43:43.221Z,72.30
2018-07-02T05:46:11.510Z,71.50
2018-07-02T05:48:39.873Z,70.70
2018-07-02T05:51:08.190Z,70.60
2018-07-02T05:53:36.478Z,70.10
2018-07-02T05:56:04.817Z,70.30
2018-07-02T05:58:33.191Z,69.80
2018-07-02T06:01:01.551Z,68.80
2018-07-02T06:03:29.891Z,69.10
2018-07-02T06:05:58.252Z,68.70
2018-07-02T06:08:26.565Z,66.80
2018-07-02T06:10:54.938Z,66.50
2018-07-02T06:13:23.305Z,66.50
2018-07-02T06:15:51.692Z,67.40
2018-07-02T06:18:19.988Z,68.20
2018-07-02T06:20:48.406Z,66.70
2018-07-02T06:23:16.747Z,66.30
2018-07-02T06:25:45.080Z,63.90
2018-07-02T06:28:13.450Z,64.10
2018-07-02T06:30:41.768Z,65.10
2018-07-02T06:33:10.484Z,64.10
2018-07-02T06:35:38.819Z,64.10
2018-07-02T06:38:07.128Z,63.30
2018-07-02T06:40:35.525Z,63.10
2018-07-02T06:43:04.102Z,62.80
2018-07-02T06:45:32.457Z,62.30
2018-07-02T06:48:00.814Z,62.10
2018-07-02T06:50:29.149Z,62.50
2018-07-02T06:52:57.516Z,62.90
2018-07-02T06:55:26.050Z,63.30
2018-07-02T06:57:57.051Z,61.20
2018-07-02T07:00:25.385Z,61.40
2018-07-02T07:02:53.711Z,61.00
2018-07-02T07:05:22.023Z,59.90
2018-07-02T07:07:50.377Z,59.00
2018-07-02T07:10:18.780Z,58.10
2018-07-02T07:12:47.153Z,58.40
2018-07-02T07:15:15.483Z,58.60
2018-07-02T07:17:43.836Z,58.70
2018-07-02T07:20:12.197Z,59.00
2018-07-02T07:22:40.557Z,57.50
2018-07-02T07:25:09.036Z,56.90
2018-07-02T07:27:37.411Z,57.10
2018-07-02T07:30:05.777Z,56.80
2018-07-02T07:32:34.115Z,56.40
2018-07-02T07:35:02.516Z,55.50
2018-07-02T07:37:30.923Z,56.20
2018-07-02T07:39:59.997Z,56.40
2018-07-02T07:42:28.529Z,55.90
2018-07-02T07:44:56.974Z,56.70
2018-07-02T07:47:25.588Z,55.60
2018-07-02T07:49:54.444Z,57.00
2018-07-02T07:52:22.867Z,56.80
2018-07-02T07:54:51.236Z,56.30
2018-07-02T07:59:47.848Z,56.90
2018-07-02T08:02:16.249Z,56.10
2018-07-02T08:04:44.772Z,57.20
2018-07-02T08:07:13.234Z,57.50
2018-07-02T08:14:38.163Z,57.40
2018-07-02T08:17:06.591Z,57.40
2018-07-02T08:19:35.044Z,56.20
2018-07-02T08:22:03.372Z,56.70
2018-07-02T08:24:31.758Z,55.90
2018-07-02T08:27:00.145Z,55.80
2018-07-02T08:29:28.621Z,56.20
2018-07-02T08:31:57.352Z,56.50
2018-07-02T08:34:26.011Z,55.70
2018-07-02T08:36:55.197Z,57.10
2018-07-02T08:39:23.557Z,56.80
2018-07-02T08:41:51.963Z,57.00
2018-07-02T08:44:20.406Z,58.00
2018-07-02T08:46:48.830Z,56.90
2018-07-02T08:49:17.157Z,55.60
2018-07-02T08:51:45.530Z,56.00
2018-07-02T08:54:14.076Z,55.70
2018-07-02T08:56:42.906Z,54.20
2018-07-02T08:59:11.328Z,55.60
2018-07-02T09:01:40.502Z,57.00
2018-07-02T09:04:08.849Z,56.10
2018-07-02T09:06:37.412Z,55.00
2018-07-02T09:09:08.836Z,54.40
2018-07-02T09:11:37.438Z,56.30
2018-07-02T09:14:05.853Z,56.80
2018-07-02T09:16:34.249Z,56.90
2018-07-02T09:19:02.620Z,55.90
2018-07-02T09:21:31.198Z,56.40
2018-07-02T09:23:59.588Z,55.80
2018-07-02T09:26:27.942Z,55.90
2018-07-02T09:28:56.331Z,55.80
2018-07-02T09:31:24.717Z,55.60
2018-07-02T09:33:53.103Z,56.30
2018-07-02T09:36:21.499Z,55.40
2018-07-02T09:38:49.960Z,56.10
2018-07-02T09:41:18.351Z,55.20
2018-07-02T09:43:46.801Z,55.80
2018-07-02T09:46:15.191Z,54.10
2018-07-02T09:48:43.673Z,53.50
2018-07-02T09:51:12.061Z,55.20
2018-07-02T09:53:40.458Z,54.70
2018-07-02T09:56:08.848Z,53.70
2018-07-02T09:58:37.176Z,54.10
2018-07-02T10:01:05.659Z,53.80
2018-07-02T10:03:34.009Z,54.80
2018-07-02T10:06:02.917Z,54.70
2018-07-02T10:08:31.287Z,55.10
2018-07-02T10:10:59.651Z,54.00
2018-07-02T10:13:28.053Z,53.30
2018-07-02T10:15:56.448Z,54.00
2018-07-02T10:18:24.781Z,53.10
2018-07-02T10:20:53.496Z,53.60
2018-07-02T10:23:21.808Z,53.60
2018-07-02T10:25:50.186Z,53.30
2018-07-02T10:28:18.571Z,52.60
2018-07-02T10:30:46.996Z,53.90
2018-07-02T10:33:15.869Z,56.80
2018-07-02T10:35:44.239Z,52.90
2018-07-02T10:43:09.040Z,53.80
2018-07-02T10:45:37.390Z,53.10
2018-07-02T10:48:05.808Z,53.80
2018-07-02T10:50:34.199Z,54.30
2018-07-02T10:53:02.510Z,54.00
2018-07-02T10:55:30.849Z,54.40
2018-07-02T10:57:59.208Z,53.30
2018-07-02T11:00:27.569Z,54.50
2018-07-02T11:02:55.961Z,54.40
2018-07-02T11:05:24.304Z,53.60
2018-07-02T11:07:52.702Z,54.50
2018-07-02T11:10:21.118Z,52.70
2018-07-02T11:12:49.513Z,52.40
2018-07-02T11:15:17.893Z,53.60
2018-07-02T11:17:46.276Z,53.50
2018-07-02T11:20:14.621Z,53.30
2018-07-02T11:22:43.026Z,53.30
2018-07-02T11:25:11.617Z,51.50
2018-07-02T11:27:40.191Z,51.90
2018-07-02T11:30:08.530Z,51.90
2018-07-02T11:32:36.884Z,51.60
2018-07-02T11:35:05.300Z,52.20
2018-07-02T11:37:33.721Z,51.40
2018-07-02T11:40:02.015Z,51.70
2018-07-02T11:42:30.425Z,50.10
2018-07-02T11:44:58.782Z,49.30
2018-07-02T11:47:27.184Z,49.30
2018-07-02T11:49:55.586Z,50.20
2018-07-02T11:52:24.056Z,50.20
2018-07-02T11:54:52.484Z,49.90
2018-07-02T11:57:20.926Z,51.50
2018-07-02T11:59:49.482Z,50.40
2018-07-02T12:02:17.793Z,47.90
2018-07-02T12:04:46.214Z,47.80
2018-07-02T12:07:14.601Z,47.80
2018-07-02T12:09:43.032Z,49.80
2018-07-02T12:12:11.409Z,48.80
2018-07-02T12:14:39.785Z,49.30
2018-07-02T12:17:08.133Z,50.30
2018-07-02T12:19:36.577Z,48.40
2018-07-02T12:22:05.076Z,47.40
2018-07-02T12:24:33.528Z,47.70
2018-07-02T12:27:02.193Z,46.50
2018-07-02T12:31:58.694Z,45.30
2018-07-02T12:34:27.048Z,45.10
2018-07-02T12:36:55.527Z,46.10
2018-07-02T12:39:23.862Z,45.00
2018-07-02T12:41:52.238Z,43.10
2018-07-02T12:44:20.602Z,43.60
2018-07-02T12:46:50.362Z,43.00
2018-07-02T12:51:47.246Z,42.90
2018-07-02T12:54:15.693Z,42.60
2018-07-02T12:56:44.392Z,43.10
2018-07-02T12:59:12.733Z,43.20
2018-07-02T13:01:41.292Z,42.90
2018-07-02T13:04:09.737Z,43.40
2018-07-02T13:06:38.110Z,43.20
2018-07-02T13:09:08.806Z,43.30
2018-07-02T13:11:37.177Z,43.60
2018-07-02T13:14:06.331Z,44.60
2018-07-02T13:16:34.730Z,44.30
2018-07-02T13:19:03.181Z,45.50
2018-07-02T13:21:31.509Z,43.50
2018-07-02T13:23:59.934Z,45.10
2018-07-02T13:26:28.308Z,44.40
2018-07-02T13:28:56.655Z,43.30
2018-07-02T13:31:25.077Z,43.70
2018-07-02T13:33:53.527Z,43.20
2018-07-02T13:36:21.986Z,41.30
2018-07-02T13:38:50.602Z,41.60
2018-07-02T13:41:19.580Z,42.40
2018-07-02T13:43:48.006Z,43.70
2018-07-02T13:46:16.657Z,43.80
2018-07-02T13:48:45.119Z,43.40
2018-07-02T13:51:13.535Z,43.10
2018-07-02T13:53:41.873Z,43.40
2018-07-02T13:56:10.262Z,40.70
2018-07-02T13:58:38.589Z,41.60
2018-07-02T14:01:07.074Z,40.80
2018-07-02T14:03:35.502Z,40.50
2018-07-02T14:06:03.881Z,41.40
2018-07-02T14:08:32.310Z,40.90
2018-07-02T14:11:00.679Z,40.00
2018-07-02T14:13:29.200Z,41.30
2018-07-02T14:15:57.657Z,40.70
2018-07-02T14:18:26.078Z,41.60
2018-07-02T14:20:54.449Z,40.40
2018-07-02T14:23:22.773Z,40.30
2018-07-02T14:25:51.137Z,40.70
2018-07-02T14:28:19.485Z,39.30
2018-07-02T14:30:47.817Z,40.60
2018-07-02T14:33:16.238Z,42.00
2018-07-02T14:35:44.574Z,38.60
2018-07-02T14:38:12.931Z,39.60
2018-07-02T14:40:41.317Z,37.60
2018-07-02T14:43:09.701Z,39.40
2018-07-02T14:45:38.129Z,39.80
2018-07-02T14:48:06.715Z,39.60
2018-07-02T14:50:35.076Z,39.60
2018-07-02T14:53:03.459Z,39.60
2018-07-02T14:55:31.877Z,38.80
2018-07-02T14:58:00.287Z,38.00
2018-07-02T15:00:28.650Z,38.60
2018-07-02T15:02:57.032Z,38.80
2018-07-02T15:05:28.001Z,38.60
2018-07-02T15:07:56.397Z,37.00
2018-07-02T15:10:24.723Z,38.30
2018-07-02T15:12:53.076Z,40.30
2018-07-02T15:15:21.466Z,39.10
2018-07-02T15:17:49.857Z,39.20
2018-07-02T15:20:18.405Z,40.20
2018-07-02T15:22:46.795Z,40.00
2018-07-02T15:25:15.164Z,39.40
2018-07-02T15:27:43.541Z,40.10
2018-07-02T15:30:11.937Z,40.50
2018-07-02T15:32:40.295Z,40.50
2018-07-02T15:35:08.725Z,38.80
2018-07-02T15:37:37.102Z,38.50
2018-07-02T15:40:05.469Z,39.10
2018-07-02T15:42:33.881Z,38.70
2018-07-02T15:45:02.215Z,37.60
2018-07-02T15:47:30.583Z,37.70
2018-07-02T15:49:58.953Z,38.40
2018-07-02T15:52:27.322Z,38.20
2018-07-02T15:54:55.693Z,37.60
2018-07-02T15:57:24.085Z,37.80
2018-07-02T15:59:52.817Z,38.50
2018-07-02T16:02:21.220Z,38.90
2018-07-02T16:04:49.762Z,39.90
2018-07-02T16:07:18.431Z,39.70
2018-07-02T16:09:46.830Z,39.70
2018-07-02T16:12:15.510Z,39.70
2018-07-02T16:14:44.875Z,38.40
2018-07-02T16:17:13.483Z,37.70
2018-07-02T16:19:41.941Z,38.60
2018-07-02T16:22:10.348Z,38.60
2018-07-02T16:24:38.722Z,38.60
2018-07-02T16:27:07.082Z,37.90
2018-07-02T16:29:35.462Z,38.60
2018-07-02T16:32:03.865Z,39.40
2018-07-02T16:34:32.255Z,39.30
2018-07-02T16:37:00.716Z,38.60
2018-07-02T16:39:29.100Z,40.30
2018-07-02T16:41:57.440Z,40.90
2018-07-02T16:44:25.824Z,40.20
2018-07-02T16:46:54.429Z,39.40
2018-07-02T16:49:22.814Z,40.30
2018-07-02T16:51:51.203Z,39.70
2018-07-02T16:54:19.536Z,40.60
2018-07-02T16:56:48.011Z,41.70
2018-07-02T16:59:16.381Z,41.60
2018-07-02T17:01:44.758Z,41.40
2018-07-02T17:04:13.119Z,40.30
2018-07-02T17:06:41.477Z,40.50
2018-07-02T17:09:11.165Z,41.50
2018-07-02T17:11:40.063Z,41.70
2018-07-02T17:14:08.752Z,41.60
2018-07-02T17:16:37.825Z,41.80
2018-07-02T17:19:06.357Z,41.40
2018-07-02T17:24:02.853Z,43.80
2018-07-02T17:26:31.250Z,44.30
2018-07-02T17:28:59.637Z,44.50
2018-07-02T17:31:28.014Z,44.20
2018-07-02T17:33:56.371Z,43.70
2018-07-02T17:36:24.787Z,45.70
2018-07-02T17:38:53.153Z,46.30
2018-07-02T17:41:21.507Z,46.60
2018-07-02T17:43:49.897Z,47.70
2018-07-02T17:46:18.353Z,48.10
2018-07-02T17:48:46.787Z,47.50
2018-07-02T17:51:15.219Z,48.00
2018-07-02T17:53:43.586Z,49.10
2018-07-02T17:56:11.946Z,49.40
2018-07-02T17:58:40.335Z,49.50
2018-07-02T18:01:08.683Z,48.80
2018-07-02T18:03:37.121Z,50.20
2018-07-02T18:06:05.891Z,50.30
2018-07-02T18:08:34.386Z,49.60
2018-07-02T18:11:02.843Z,50.30
2018-07-02T18:13:31.251Z,49.70
2018-07-02T18:15:59.691Z,49.80
2018-07-02T18:18:28.196Z,50.00
2018-07-02T18:20:56.590Z,48.90
2018-07-02T18:23:24.997Z,49.90
2018-07-02T18:25:53.436Z,49.60
2018-07-02T18:28:21.808Z,50.10
2018-07-02T18:30:50.223Z,50.70
2018-07-02T18:33:18.599Z,51.10
2018-07-02T18:35:47.093Z,53.00
2018-07-02T18:38:15.484Z,53.60
2018-07-02T18:40:43.985Z,53.30
2018-07-02T18:43:12.503Z,54.00
2018-07-02T18:45:40.941Z,53.20
2018-07-02T18:48:09.380Z,53.50
2018-07-02T18:50:37.765Z,53.20
2018-07-02T18:53:06.252Z,53.30
2018-07-02T18:55:34.658Z,54.00
2018-07-02T18:58:03.038Z,54.20
2018-07-02T19:00:31.434Z,54.40
2018-07-02T19:02:59.784Z,55.00
2018-07-02T19:05:28.167Z,55.10
2018-07-02T19:07:56.589Z,55.40
2018-07-02T19:10:24.999Z,55.30
2018-07-02T19:12:53.451Z,55.50
2018-07-02T19:15:21.965Z,55.30
2018-07-02T19:17:50.357Z,55.80
2018-07-02T19:20:18.715Z,56.50
2018-07-02T19:22:47.081Z,56.90
2018-07-02T19:25:15.491Z,57.00
2018-07-02T19:30:11.972Z,58.30
2018-07-02T19:32:40.399Z,59.70
2018-07-02T19:35:08.825Z,61.00
2018-07-02T19:37:37.277Z,61.20
2018-07-02T19:40:05.683Z,62.10
2018-07-02T19:42:34.073Z,62.60
2018-07-02T19:45:02.610Z,63.00
2018-07-02T19:47:31.043Z,63.40
2018-07-02T19:49:59.525Z,63.60
2018-07-02T19:52:28.246Z,64.70
2018-07-02T19:54:56.655Z,64.80
2018-07-02T19:57:25.865Z,64.70
2018-07-02T19:59:54.261Z,65.20
2018-07-02T20:02:22.648Z,65.30
2018-07-02T20:04:51.038Z,65.60
2018-07-02T20:07:19.524Z,66.50
2018-07-02T20:09:48.662Z,67.20
2018-07-02T20:12:17.030Z,67.50
2018-07-02T20:14:45.470Z,67.60
2018-07-02T20:17:13.853Z,69.10
2018-07-02T20:19:42.201Z,68.70
2018-07-02T20:22:10.552Z,69.00
2018-07-02T20:24:38.890Z,68.60
2018-07-02T20:27:07.309Z,68.40
2018-07-02T20:29:35.759Z,68.50
2018-07-02T20:32:04.144Z,69.70
2018-07-02T20:34:33.353Z,69.00
2018-07-02T20:37:01.705Z,69.20
2018-07-02T20:39:30.107Z,69.90
2018-07-02T20:41:58.475Z,70.50
2018-07-02T20:44:26.840Z,70.20
2018-07-02T20:46:55.259Z,70.50
2018-07-02T20:49:23.649Z,71.20
2018-07-02T20:51:52.031Z,71.10
2018-07-02T20:54:20.430Z,71.30
2018-07-02T20:56:48.798Z,71.40
2018-07-02T20:59:17.228Z,71.20
2018-07-02T21:01:45.583Z,71.10
2018-07-02T21:04:13.954Z,71.30
2018-07-02T21:06:42.336Z,71.70
2018-07-02T21:09:11.551Z,72.00
2018-07-02T21:11:39.912Z,72.20
2018-07-02T21:14:08.313Z,72.30
2018-07-02T21:16:37.130Z,72.90
2018-07-02T21:19:05.691Z,73.10
2018-07-02T21:21:34.105Z,73.10
2018-07-02T21:24:02.489Z,73.50
2018-07-02T21:26:30.935Z,73.90
2018-07-02T21:28:59.277Z,73.80
2018-07-02T21:31:27.685Z,74.10
2018-07-02T21:33:56.068Z,73.20
2018-07-02T21:36:24.478Z,73.90
2018-07-02T21:38:52.952Z,74.00
2018-07-02T21:41:21.385Z,74.50
2018-07-02T21:43:49.742Z,74.80
2018-07-02T21:46:18.224Z,75.00
2018-07-02T21:48:46.658Z,75.00
2018-07-02T21:51:15.073Z,75.60
2018-07-02T21:53:43.479Z,76.60
2018-07-02T21:56:11.860Z,77.10
2018-07-02T21:58:40.340Z,77.40
2018-07-02T22:03:36.797Z,77.70
2018-07-02T22:06:05.298Z,77.50
2018-07-02T22:08:33.775Z,77.70
2018-07-02T22:11:02.396Z,77.30
2018-07-02T22:13:30.773Z,77.10
2018-07-02T22:15:59.256Z,78.00
2018-07-02T22:20:56.015Z,77.40
2018-07-02T22:25:52.506Z,78.30
2018-07-02T22:28:20.892Z,79.10
2018-07-02T22:30:49.368Z,79.40
2018-07-02T22:33:18.032Z,80.00
2018-07-02T22:35:46.415Z,79.30
2018-07-02T22:38:14.856Z,79.50
2018-07-02T22:40:43.195Z,79.10
2018-07-02T22:43:11.595Z,80.20
2018-07-02T22:45:40.018Z,80.30
2018-07-02T22:48:08.388Z,80.60
2018-07-02T22:50:37.734Z,82.10
2018-07-02T22:53:06.256Z,82.40
2018-07-02T22:56:01.324Z,81.90
2018-07-02T22:58:29.712Z,81.40
2018-07-02T23:00:58.985Z,82.00
2018-07-02T23:03:27.582Z,82.60
2018-07-02T23:05:56.397Z,82.70
2018-07-02T23:08:25.933Z,80.90
2018-07-02T23:10:54.296Z,80.80
2018-07-02T23:13:23.377Z,79.80
2018-07-02T23:15:55.937Z,79.70
2018-07-02T23:18:24.876Z,79.90
2018-07-02T23:20:53.240Z,80.20
2018-07-02T23:23:21.561Z,80.50
2018-07-02T23:25:49.945Z,80.00
2018-07-02T23:28:18.487Z,79.90
2018-07-02T23:30:46.762Z,79.20
2018-07-02T23:33:15.078Z,78.80
2018-07-02T23:35:43.519Z,78.00
2018-07-02T23:38:11.962Z,77.60
2018-07-02T23:40:40.281Z,77.60
2018-07-02T23:43:08.622Z,77.30
2018-07-02T23:45:37.050Z,77.40
2018-07-02T23:48:05.642Z,77.00
2018-07-02T23:50:33.977Z,76.90
2018-07-02T23:53:02.370Z,77.30
2018-07-02T23:55:30.675Z,77.20
2018-07-02T23:57:59.046Z,76.80
